Stamford, NY (12167)

2:32 AM EDT on October 31, 2014 (GMT -0400)
Stamford Central School | Change Station
CLOSE
Current Station
Personal Weather Station
Location: Stamford, NY
Elevation: 1804 ft
Nearby Weather Stations

Elev 1804 ft 42.41 °N, 74.62 °W | Updated 40 seconds ago

Clear
Clear
29.2 °F
Feels Like 29 °F
N
0.0
Wind Variable Wind from NW

Today
High -- | Low -- °F
--% Chance of Precip.
Yesterday
High -- | Low -- °F
Precip. -- in
7:30 AM 5:52 PM
First Quarter, 52% visible
Pressure 30.05 in
Visibility 10.0 miles
Clouds Clear
Windchill 29 °F
Dew Point 26 °F
Humidity 89%
Rainfall 0.00 in
Snow Depth Not available.
UV 0.0 out of 12
Pollen .60 out of 12
Air Quality Not available.
Flu Activity Not available.
METAR KALB 310551Z 00000KT 10SM CLR 01/M01 A3004 RMK AO2 SLP176 T00111006 10072 20006 53000

More Conditions Fewer Conditions

Pressure 30.05 in
Visibility 10.0 miles
Clouds Clear
Windchill 29 °F
Dew Point 26 °F
Humidity 89%
Rainfall 0.00 in
Snow Depth Not available.
UV 0.0 out of 12
Pollen .60 out of 12
Air Quality Not available.
Flu Activity Not available.
METAR KALB 310551Z 00000KT 10SM CLR 01/M01 A3004 RMK AO2 SLP176 T00111006 10072 20006 53000

More Conditions Fewer Conditions

10-Day Weather Forecast

Almanac

Astronomy

Oct. 31, 2014 Rise Set
Actual Time
Civil Twilight
Nautical Twilight
Astronomical Twilight
Moon
Length of Visible Light
Length of Day
Tomorrow will be .
, % of the Moon is Illuminated

Today's Extremes

State Highs State Lows

Community

WunderPhotos

Upload Photos

1,766,571 photos uploaded!

WunderBlogs® & News

Nearby

Air Quality

  Air Quality AQ Index Pollutant
Not available.

Snow Depth

Station Depth Elevation

Earthquake Activity

City Distance Mag. Time & Date
Minimum magnitude displayed is 2.5.

Coastal Water Temperatures

Place Temperature

Nearby Weather Stations